sensor_id;sensor_type;location;lat;lon;timestamp;P1;durP1;ratioP1;P2;durP2;ratioP2
68310;SDS011;55157;51.036;17.058;2023-09-08T00:01:07;11.98;;;8.88;;
68310;SDS011;55157;51.036;17.058;2023-09-08T00:03:34;14.95;;;9.50;;
68310;SDS011;55157;51.036;17.058;2023-09-08T00:05:59;11.60;;;9.07;;
68310;SDS011;55157;51.036;17.058;2023-09-08T00:08:25;13.40;;;9.60;;
68310;SDS011;55157;51.036;17.058;2023-09-08T00:10:50;15.23;;;8.57;;
68310;SDS011;55157;51.036;17.058;2023-09-08T00:13:15;12.77;;;8.70;;
68310;SDS011;55157;51.036;17.058;2023-09-08T00:15:40;14.70;;;8.95;;
68310;SDS011;55157;51.036;17.058;2023-09-08T00:18:05;14.73;;;9.50;;
68310;SDS011;55157;51.036;17.058;2023-09-08T00:22:59;14.30;;;8.90;;
68310;SDS011;55157;51.036;17.058;2023-09-08T00:25:24;15.60;;;9.43;;
68310;SDS011;55157;51.036;17.058;2023-09-08T00:27:49;11.20;;;8.95;;
68310;SDS011;55157;51.036;17.058;2023-09-08T00:30:14;15.57;;;9.50;;
68310;SDS011;55157;51.036;17.058;2023-09-08T00:32:39;13.25;;;8.32;;
68310;SDS011;55157;51.036;17.058;2023-09-08T00:35:05;14.40;;;9.90;;
68310;SDS011;55157;51.036;17.058;2023-09-08T00:37:31;12.65;;;9.30;;
68310;SDS011;55157;51.036;17.058;2023-09-08T00:39:57;14.98;;;8.70;;
68310;SDS011;55157;51.036;17.058;2023-09-08T00:42:22;11.73;;;8.07;;
68310;SDS011;55157;51.036;17.058;2023-09-08T00:44:48;13.77;;;9.32;;
68310;SDS011;55157;51.036;17.058;2023-09-08T00:47:13;13.52;;;9.88;;
68310;SDS011;55157;51.036;17.058;2023-09-08T00:49:38;10.35;;;8.85;;
68310;SDS011;55157;51.036;17.058;2023-09-08T00:52:03;18.30;;;9.38;;
68310;SDS011;55157;51.036;17.058;2023-09-08T00:54:29;11.27;;;8.10;;
68310;SDS011;55157;51.036;17.058;2023-09-08T00:56:56;13.75;;;9.90;;
68310;SDS011;55157;51.036;17.058;2023-09-08T00:59:21;14.75;;;9.25;;
68310;SDS011;55157;51.036;17.058;2023-09-08T01:01:46;13.68;;;8.77;;
68310;SDS011;55157;51.036;17.058;2023-09-08T01:04:12;14.68;;;8.77;;
68310;SDS011;55157;51.036;17.058;2023-09-08T01:06:37;15.73;;;8.13;;
68310;SDS011;55157;51.036;17.058;2023-09-08T01:09:03;9.25;;;7.93;;
68310;SDS011;55157;51.036;17.058;2023-09-08T01:11:28;13.50;;;8.82;;
68310;SDS011;55157;51.036;17.058;2023-09-08T01:13:55;11.95;;;9.10;;
68310;SDS011;55157;51.036;17.058;2023-09-08T01:16:21;13.23;;;9.57;;
68310;SDS011;55157;51.036;17.058;2023-09-08T01:18:46;15.60;;;8.82;;
68310;SDS011;55157;51.036;17.058;2023-09-08T01:21:15;16.95;;;9.95;;
68310;SDS011;55157;51.036;17.058;2023-09-08T01:23:50;11.38;;;7.45;;
68310;SDS011;55157;51.036;17.058;2023-09-08T01:26:20;15.25;;;8.05;;
68310;SDS011;55157;51.036;17.058;2023-09-08T01:28:46;14.18;;;8.25;;
68310;SDS011;55157;51.036;17.058;2023-09-08T01:31:13;16.00;;;9.90;;
68310;SDS011;55157;51.036;17.058;2023-09-08T01:33:38;12.57;;;9.02;;
68310;SDS011;55157;51.036;17.058;2023-09-08T01:36:04;13.70;;;9.15;;
68310;SDS011;55157;51.036;17.058;2023-09-08T01:38:29;12.82;;;8.73;;
68310;SDS011;55157;51.036;17.058;2023-09-08T01:40:55;13.70;;;8.55;;
68310;SDS011;55157;51.036;17.058;2023-09-08T01:43:21;10.10;;;8.68;;
68310;SDS011;55157;51.036;17.058;2023-09-08T01:45:46;14.32;;;8.98;;
68310;SDS011;55157;51.036;17.058;2023-09-08T01:48:12;16.00;;;9.13;;
68310;SDS011;55157;51.036;17.058;2023-09-08T01:50:37;11.98;;;8.57;;
68310;SDS011;55157;51.036;17.058;2023-09-08T01:53:02;18.58;;;10.30;;
68310;SDS011;55157;51.036;17.058;2023-09-08T01:55:28;10.50;;;7.72;;
68310;SDS011;55157;51.036;17.058;2023-09-08T01:57:53;12.75;;;9.13;;
68310;SDS011;55157;51.036;17.058;2023-09-08T02:00:20;13.63;;;9.63;;
68310;SDS011;55157;51.036;17.058;2023-09-08T02:02:45;13.85;;;8.70;;
68310;SDS011;55157;51.036;17.058;2023-09-08T02:05:10;10.88;;;8.60;;
68310;SDS011;55157;51.036;17.058;2023-09-08T02:07:35;13.95;;;8.73;;
68310;SDS011;55157;51.036;17.058;2023-09-08T02:10:00;12.02;;;9.25;;
68310;SDS011;55157;51.036;17.058;2023-09-08T02:12:26;11.07;;;8.80;;
68310;SDS011;55157;51.036;17.058;2023-09-08T02:14:51;14.93;;;9.73;;
68310;SDS011;55157;51.036;17.058;2023-09-08T02:17:18;17.10;;;9.27;;
68310;SDS011;55157;51.036;17.058;2023-09-08T02:19:43;14.20;;;8.35;;
68310;SDS011;55157;51.036;17.058;2023-09-08T02:22:08;11.77;;;9.20;;
68310;SDS011;55157;51.036;17.058;2023-09-08T02:24:34;14.45;;;9.00;;
68310;SDS011;55157;51.036;17.058;2023-09-08T02:26:59;12.68;;;9.23;;
68310;SDS011;55157;51.036;17.058;2023-09-08T02:29:24;13.63;;;9.13;;
68310;SDS011;55157;51.036;17.058;2023-09-08T02:31:49;14.98;;;8.77;;
68310;SDS011;55157;51.036;17.058;2023-09-08T02:34:16;16.77;;;10.10;;
68310;SDS011;55157;51.036;17.058;2023-09-08T02:36:41;12.80;;;9.38;;
68310;SDS011;55157;51.036;17.058;2023-09-08T02:39:07;14.18;;;8.93;;
68310;SDS011;55157;51.036;17.058;2023-09-08T02:41:32;16.23;;;8.85;;
68310;SDS011;55157;51.036;17.058;2023-09-08T02:43:57;17.02;;;8.68;;
68310;SDS011;55157;51.036;17.058;2023-09-08T02:46:22;10.25;;;8.75;;
68310;SDS011;55157;51.036;17.058;2023-09-08T02:48:48;12.10;;;8.85;;
68310;SDS011;55157;51.036;17.058;2023-09-08T02:51:14;18.45;;;9.27;;
68310;SDS011;55157;51.036;17.058;2023-09-08T02:53:39;10.15;;;8.10;;
68310;SDS011;55157;51.036;17.058;2023-09-08T02:56:05;12.90;;;9.02;;
68310;SDS011;55157;51.036;17.058;2023-09-08T02:58:30;11.60;;;8.75;;
68310;SDS011;55157;51.036;17.058;2023-09-08T03:00:55;13.30;;;10.15;;
68310;SDS011;55157;51.036;17.058;2023-09-08T03:03:20;12.27;;;9.40;;
68310;SDS011;55157;51.036;17.058;2023-09-08T03:05:46;13.85;;;9.57;;
68310;SDS011;55157;51.036;17.058;2023-09-08T03:08:13;13.50;;;9.07;;
68310;SDS011;55157;51.036;17.058;2023-09-08T03:10:38;17.88;;;9.27;;
68310;SDS011;55157;51.036;17.058;2023-09-08T03:13:03;12.52;;;9.35;;
68310;SDS011;55157;51.036;17.058;2023-09-08T03:15:28;15.55;;;9.90;;
68310;SDS011;55157;51.036;17.058;2023-09-08T03:17:54;19.38;;;9.88;;
68310;SDS011;55157;51.036;17.058;2023-09-08T03:20:19;19.52;;;10.13;;
68310;SDS011;55157;51.036;17.058;2023-09-08T03:22:44;19.23;;;11.77;;
68310;SDS011;55157;51.036;17.058;2023-09-08T03:25:11;14.02;;;9.13;;
68310;SDS011;55157;51.036;17.058;2023-09-08T03:27:38;14.13;;;10.07;;
68310;SDS011;55157;51.036;17.058;2023-09-08T03:30:03;12.98;;;10.13;;
68310;SDS011;55157;51.036;17.058;2023-09-08T03:32:29;15.00;;;10.85;;
68310;SDS011;55157;51.036;17.058;2023-09-08T03:34:54;15.77;;;9.90;;
68310;SDS011;55157;51.036;17.058;2023-09-08T03:37:19;14.50;;;10.60;;
68310;SDS011;55157;51.036;17.058;2023-09-08T03:39:44;14.07;;;11.20;;
68310;SDS011;55157;51.036;17.058;2023-09-08T03:42:11;14.80;;;9.98;;
68310;SDS011;55157;51.036;17.058;2023-09-08T03:44:36;13.80;;;9.45;;
68310;SDS011;55157;51.036;17.058;2023-09-08T03:47:02;14.85;;;10.07;;
68310;SDS011;55157;51.036;17.058;2023-09-08T03:49:27;13.40;;;9.57;;
68310;SDS011;55157;51.036;17.058;2023-09-08T03:51:52;13.57;;;11.35;;
68310;SDS011;55157;51.036;17.058;2023-09-08T03:54:17;14.25;;;11.27;;
68310;SDS011;55157;51.036;17.058;2023-09-08T03:56:42;20.30;;;10.80;;
68310;SDS011;55157;51.036;17.058;2023-09-08T03:59:09;21.75;;;11.80;;
68310;SDS011;55157;51.036;17.058;2023-09-08T04:01:34;14.90;;;9.63;;
68310;SDS011;55157;51.036;17.058;2023-09-08T04:04:00;15.80;;;10.63;;
68310;SDS011;55157;51.036;17.058;2023-09-08T04:06:25;15.25;;;9.75;;
68310;SDS011;55157;51.036;17.058;2023-09-08T04:08:50;17.55;;;9.88;;
68310;SDS011;55157;51.036;17.058;2023-09-08T04:11:16;16.52;;;9.77;;
68310;SDS011;55157;51.036;17.058;2023-09-08T04:13:41;14.63;;;9.60;;
68310;SDS011;55157;51.036;17.058;2023-09-08T04:16:07;13.48;;;9.68;;
68310;SDS011;55157;51.036;17.058;2023-09-08T04:18:33;16.50;;;9.73;;
68310;SDS011;55157;51.036;17.058;2023-09-08T04:20:58;17.27;;;9.82;;
68310;SDS011;55157;51.036;17.058;2023-09-08T04:23:23;12.57;;;10.00;;
68310;SDS011;55157;51.036;17.058;2023-09-08T04:25:48;16.90;;;10.15;;
68310;SDS011;55157;51.036;17.058;2023-09-08T04:28:14;18.65;;;9.75;;
68310;SDS011;55157;51.036;17.058;2023-09-08T04:30:39;26.80;;;10.70;;
68310;SDS011;55157;51.036;17.058;2023-09-08T04:33:06;24.13;;;10.68;;
68310;SDS011;55157;51.036;17.058;2023-09-08T04:35:31;24.77;;;11.27;;
68310;SDS011;55157;51.036;17.058;2023-09-08T04:37:56;24.42;;;11.52;;
68310;SDS011;55157;51.036;17.058;2023-09-08T04:40:21;25.08;;;10.95;;
68310;SDS011;55157;51.036;17.058;2023-09-08T04:42:46;25.73;;;10.98;;
68310;SDS011;55157;51.036;17.058;2023-09-08T04:45:12;23.13;;;10.90;;
68310;SDS011;55157;51.036;17.058;2023-09-08T04:47:37;19.08;;;9.98;;
68310;SDS011;55157;51.036;17.058;2023-09-08T04:50:04;16.42;;;11.27;;
68310;SDS011;55157;51.036;17.058;2023-09-08T04:52:30;16.98;;;9.40;;
68310;SDS011;55157;51.036;17.058;2023-09-08T04:54:55;16.98;;;10.73;;
68310;SDS011;55157;51.036;17.058;2023-09-08T04:57:20;15.75;;;10.43;;
68310;SDS011;55157;51.036;17.058;2023-09-08T04:59:46;14.98;;;10.30;;
68310;SDS011;55157;51.036;17.058;2023-09-08T05:02:11;14.25;;;11.13;;
68310;SDS011;55157;51.036;17.058;2023-09-08T05:04:36;15.60;;;11.35;;
68310;SDS011;55157;51.036;17.058;2023-09-08T05:07:03;18.50;;;11.07;;
68310;SDS011;55157;51.036;17.058;2023-09-08T05:09:28;15.30;;;11.57;;
68310;SDS011;55157;51.036;17.058;2023-09-08T05:11:53;15.88;;;10.57;;
68310;SDS011;55157;51.036;17.058;2023-09-08T05:14:19;19.92;;;11.52;;
68310;SDS011;55157;51.036;17.058;2023-09-08T05:16:44;17.33;;;11.63;;
68310;SDS011;55157;51.036;17.058;2023-09-08T05:19:09;14.43;;;10.68;;
68310;SDS011;55157;51.036;17.058;2023-09-08T05:21:34;17.48;;;10.57;;
68310;SDS011;55157;51.036;17.058;2023-09-08T05:24:01;24.60;;;11.52;;
68310;SDS011;55157;51.036;17.058;2023-09-08T05:26:26;24.23;;;12.63;;
68310;SDS011;55157;51.036;17.058;2023-09-08T05:28:51;16.05;;;11.90;;
68310;SDS011;55157;51.036;17.058;2023-09-08T05:31:17;17.35;;;10.98;;
68310;SDS011;55157;51.036;17.058;2023-09-08T05:33:42;15.32;;;10.35;;
68310;SDS011;55157;51.036;17.058;2023-09-08T05:36:07;16.55;;;10.70;;
68310;SDS011;55157;51.036;17.058;2023-09-08T05:38:32;16.98;;;11.18;;
68310;SDS011;55157;51.036;17.058;2023-09-08T05:40:59;16.20;;;11.05;;
68310;SDS011;55157;51.036;17.058;2023-09-08T05:43:24;22.80;;;13.02;;
68310;SDS011;55157;51.036;17.058;2023-09-08T05:45:50;20.55;;;12.77;;
68310;SDS011;55157;51.036;17.058;2023-09-08T05:48:15;18.95;;;12.38;;
68310;SDS011;55157;51.036;17.058;2023-09-08T05:50:40;20.08;;;13.27;;
68310;SDS011;55157;51.036;17.058;2023-09-08T05:53:06;15.63;;;13.20;;
68310;SDS011;55157;51.036;17.058;2023-09-08T05:55:31;21.10;;;13.00;;
68310;SDS011;55157;51.036;17.058;2023-09-08T05:57:58;18.58;;;13.48;;
68310;SDS011;55157;51.036;17.058;2023-09-08T06:00:23;17.17;;;13.57;;
68310;SDS011;55157;51.036;17.058;2023-09-08T06:02:48;20.40;;;14.20;;
68310;SDS011;55157;51.036;17.058;2023-09-08T06:05:13;16.90;;;13.93;;
68310;SDS011;55157;51.036;17.058;2023-09-08T06:07:38;27.15;;;14.25;;
68310;SDS011;55157;51.036;17.058;2023-09-08T06:10:04;20.88;;;15.15;;
68310;SDS011;55157;51.036;17.058;2023-09-08T06:12:30;18.88;;;13.88;;
68310;SDS011;55157;51.036;17.058;2023-09-08T06:14:56;19.75;;;14.30;;
68310;SDS011;55157;51.036;17.058;2023-09-08T06:17:21;21.88;;;13.07;;
68310;SDS011;55157;51.036;17.058;2023-09-08T06:19:48;20.88;;;16.02;;
68310;SDS011;55157;51.036;17.058;2023-09-08T06:22:13;17.30;;;14.70;;
68310;SDS011;55157;51.036;17.058;2023-09-08T06:24:38;20.67;;;15.07;;
68310;SDS011;55157;51.036;17.058;2023-09-08T06:27:04;19.25;;;14.48;;
68310;SDS011;55157;51.036;17.058;2023-09-08T06:29:29;25.35;;;14.70;;
68310;SDS011;55157;51.036;17.058;2023-09-08T06:31:56;23.58;;;15.18;;
68310;SDS011;55157;51.036;17.058;2023-09-08T06:34:21;26.55;;;16.00;;
68310;SDS011;55157;51.036;17.058;2023-09-08T06:36:46;22.98;;;16.60;;
68310;SDS011;55157;51.036;17.058;2023-09-08T06:39:11;26.17;;;16.40;;
68310;SDS011;55157;51.036;17.058;2023-09-08T06:41:37;21.48;;;16.10;;
68310;SDS011;55157;51.036;17.058;2023-09-08T06:44:02;21.63;;;16.98;;
68310;SDS011;55157;51.036;17.058;2023-09-08T06:46:27;24.00;;;16.63;;
68310;SDS011;55157;51.036;17.058;2023-09-08T06:48:54;25.90;;;17.73;;
68310;SDS011;55157;51.036;17.058;2023-09-08T06:51:19;27.35;;;16.52;;
68310;SDS011;55157;51.036;17.058;2023-09-08T06:53:46;19.13;;;14.35;;
68310;SDS011;55157;51.036;17.058;2023-09-08T06:56:18;19.50;;;15.10;;
68310;SDS011;55157;51.036;17.058;2023-09-08T06:58:43;23.25;;;15.13;;
68310;SDS011;55157;51.036;17.058;2023-09-08T07:01:09;26.55;;;15.35;;
68310;SDS011;55157;51.036;17.058;2023-09-08T07:03:34;19.08;;;13.85;;
68310;SDS011;55157;51.036;17.058;2023-09-08T07:06:00;20.17;;;15.07;;
68310;SDS011;55157;51.036;17.058;2023-09-08T07:08:26;25.42;;;14.70;;
68310;SDS011;55157;51.036;17.058;2023-09-08T07:10:51;21.80;;;13.87;;
68310;SDS011;55157;51.036;17.058;2023-09-08T07:13:17;30.10;;;14.20;;
68310;SDS011;55157;51.036;17.058;2023-09-08T07:15:42;21.40;;;14.88;;
68310;SDS011;55157;51.036;17.058;2023-09-08T07:18:07;19.58;;;12.90;;
68310;SDS011;55157;51.036;17.058;2023-09-08T07:20:32;20.23;;;13.43;;
68310;SDS011;55157;51.036;17.058;2023-09-08T07:22:59;19.30;;;13.03;;
68310;SDS011;55157;51.036;17.058;2023-09-08T07:25:24;24.63;;;13.82;;
68310;SDS011;55157;51.036;17.058;2023-09-08T07:27:49;18.45;;;13.68;;
68310;SDS011;55157;51.036;17.058;2023-09-08T07:30:15;25.63;;;13.93;;
68310;SDS011;55157;51.036;17.058;2023-09-08T07:32:40;22.43;;;14.60;;
68310;SDS011;55157;51.036;17.058;2023-09-08T07:35:05;21.20;;;15.07;;
68310;SDS011;55157;51.036;17.058;2023-09-08T07:37:31;20.73;;;15.15;;
68310;SDS011;55157;51.036;17.058;2023-09-08T07:39:57;21.27;;;13.40;;
68310;SDS011;55157;51.036;17.058;2023-09-08T07:42:22;26.02;;;14.38;;
68310;SDS011;55157;51.036;17.058;2023-09-08T07:44:48;21.13;;;13.77;;
68310;SDS011;55157;51.036;17.058;2023-09-08T07:47:13;24.77;;;14.63;;
68310;SDS011;55157;51.036;17.058;2023-09-08T07:49:38;18.73;;;14.13;;
68310;SDS011;55157;51.036;17.058;2023-09-08T07:52:04;27.53;;;14.83;;
68310;SDS011;55157;51.036;17.058;2023-09-08T07:54:29;19.60;;;14.88;;
68310;SDS011;55157;51.036;17.058;2023-09-08T07:56:56;23.90;;;13.95;;
68310;SDS011;55157;51.036;17.058;2023-09-08T07:59:21;19.88;;;13.32;;
68310;SDS011;55157;51.036;17.058;2023-09-08T08:01:46;19.17;;;13.10;;
68310;SDS011;55157;51.036;17.058;2023-09-08T08:04:11;17.60;;;12.50;;
68310;SDS011;55157;51.036;17.058;2023-09-08T08:06:37;18.57;;;13.13;;
68310;SDS011;55157;51.036;17.058;2023-09-08T08:09:02;16.50;;;12.83;;
68310;SDS011;55157;51.036;17.058;2023-09-08T08:11:27;22.23;;;13.63;;
68310;SDS011;55157;51.036;17.058;2023-09-08T08:13:54;20.40;;;13.40;;
68310;SDS011;55157;51.036;17.058;2023-09-08T08:16:19;16.05;;;12.18;;
68310;SDS011;55157;51.036;17.058;2023-09-08T08:18:44;22.47;;;12.83;;
68310;SDS011;55157;51.036;17.058;2023-09-08T08:21:10;18.40;;;12.43;;
68310;SDS011;55157;51.036;17.058;2023-09-08T08:23:35;15.07;;;11.50;;
68310;SDS011;55157;51.036;17.058;2023-09-08T08:26:00;18.73;;;12.30;;
68310;SDS011;55157;51.036;17.058;2023-09-08T08:28:25;16.83;;;11.57;;
68310;SDS011;55157;51.036;17.058;2023-09-08T08:30:52;21.10;;;12.68;;
68310;SDS011;55157;51.036;17.058;2023-09-08T08:33:17;20.48;;;12.35;;
68310;SDS011;55157;51.036;17.058;2023-09-08T08:35:47;16.52;;;11.52;;
68310;SDS011;55157;51.036;17.058;2023-09-08T08:38:13;17.27;;;10.57;;
68310;SDS011;55157;51.036;17.058;2023-09-08T08:40:38;14.70;;;9.48;;
68310;SDS011;55157;51.036;17.058;2023-09-08T08:43:04;16.45;;;10.57;;
68310;SDS011;55157;51.036;17.058;2023-09-08T08:45:29;13.97;;;10.20;;
68310;SDS011;55157;51.036;17.058;2023-09-08T08:47:56;24.33;;;10.45;;
68310;SDS011;55157;51.036;17.058;2023-09-08T08:50:23;16.95;;;10.95;;
68310;SDS011;55157;51.036;17.058;2023-09-08T08:52:49;18.70;;;9.02;;
68310;SDS011;55157;51.036;17.058;2023-09-08T08:55:14;12.18;;;8.38;;
68310;SDS011;55157;51.036;17.058;2023-09-08T08:57:39;16.13;;;9.57;;
68310;SDS011;55157;51.036;17.058;2023-09-08T09:00:05;15.85;;;9.70;;
68310;SDS011;55157;51.036;17.058;2023-09-08T09:02:31;19.73;;;8.73;;
68310;SDS011;55157;51.036;17.058;2023-09-08T09:04:58;16.67;;;9.77;;
68310;SDS011;55157;51.036;17.058;2023-09-08T09:07:24;19.35;;;9.50;;
68310;SDS011;55157;51.036;17.058;2023-09-08T09:09:49;16.42;;;9.93;;
68310;SDS011;55157;51.036;17.058;2023-09-08T09:12:15;14.10;;;8.85;;
68310;SDS011;55157;51.036;17.058;2023-09-08T09:14:44;14.17;;;9.80;;
68310;SDS011;55157;51.036;17.058;2023-09-08T09:17:10;13.10;;;9.40;;
68310;SDS011;55157;51.036;17.058;2023-09-08T09:19:35;11.77;;;7.45;;
68310;SDS011;55157;51.036;17.058;2023-09-08T09:22:02;11.33;;;8.00;;
68310;SDS011;55157;51.036;17.058;2023-09-08T09:24:28;11.00;;;8.27;;
68310;SDS011;55157;51.036;17.058;2023-09-08T09:26:55;9.63;;;8.13;;
68310;SDS011;55157;51.036;17.058;2023-09-08T09:29:20;11.68;;;8.00;;
68310;SDS011;55157;51.036;17.058;2023-09-08T09:31:52;9.23;;;7.43;;
68310;SDS011;55157;51.036;17.058;2023-09-08T09:34:17;14.03;;;8.57;;
68310;SDS011;55157;51.036;17.058;2023-09-08T09:36:43;12.80;;;8.45;;
68310;SDS011;55157;51.036;17.058;2023-09-08T09:39:09;13.65;;;8.88;;
68310;SDS011;55157;51.036;17.058;2023-09-08T09:41:35;13.45;;;8.75;;
68310;SDS011;55157;51.036;17.058;2023-09-08T09:44:00;18.05;;;8.10;;
68310;SDS011;55157;51.036;17.058;2023-09-08T09:46:27;15.37;;;9.57;;
68310;SDS011;55157;51.036;17.058;2023-09-08T09:48:53;12.70;;;7.78;;
68310;SDS011;55157;51.036;17.058;2023-09-08T09:51:19;15.95;;;9.07;;
68310;SDS011;55157;51.036;17.058;2023-09-08T09:53:44;12.88;;;8.18;;
68310;SDS011;55157;51.036;17.058;2023-09-08T09:56:11;9.55;;;7.38;;
68310;SDS011;55157;51.036;17.058;2023-09-08T09:58:38;12.48;;;8.02;;
68310;SDS011;55157;51.036;17.058;2023-09-08T10:01:04;10.30;;;7.53;;
68310;SDS011;55157;51.036;17.058;2023-09-08T10:03:30;11.05;;;8.05;;
68310;SDS011;55157;51.036;17.058;2023-09-08T10:05:56;11.43;;;7.60;;
68310;SDS011;55157;51.036;17.058;2023-09-08T10:08:21;14.37;;;8.07;;
68310;SDS011;55157;51.036;17.058;2023-09-08T10:10:47;11.60;;;8.05;;
68310;SDS011;55157;51.036;17.058;2023-09-08T10:13:14;15.60;;;7.75;;
68310;SDS011;55157;51.036;17.058;2023-09-08T10:15:42;10.52;;;7.60;;
68310;SDS011;55157;51.036;17.058;2023-09-08T10:18:07;12.13;;;7.03;;
68310;SDS011;55157;51.036;17.058;2023-09-08T10:20:33;9.85;;;6.80;;
68310;SDS011;55157;51.036;17.058;2023-09-08T10:23:00;13.27;;;7.60;;
68310;SDS011;55157;51.036;17.058;2023-09-08T10:25:27;12.90;;;7.05;;
68310;SDS011;55157;51.036;17.058;2023-09-08T10:27:56;10.13;;;6.47;;
68310;SDS011;55157;51.036;17.058;2023-09-08T10:30:22;9.73;;;6.97;;
68310;SDS011;55157;51.036;17.058;2023-09-08T10:32:48;9.52;;;6.43;;
68310;SDS011;55157;51.036;17.058;2023-09-08T10:35:14;10.63;;;7.20;;
68310;SDS011;55157;51.036;17.058;2023-09-08T10:37:39;9.80;;;6.40;;
68310;SDS011;55157;51.036;17.058;2023-09-08T10:40:20;25.60;;;7.63;;
68310;SDS011;55157;51.036;17.058;2023-09-08T10:42:46;17.05;;;7.05;;
68310;SDS011;55157;51.036;17.058;2023-09-08T10:45:14;8.57;;;6.60;;
68310;SDS011;55157;51.036;17.058;2023-09-08T10:47:54;10.52;;;6.70;;
68310;SDS011;55157;51.036;17.058;2023-09-08T10:50:19;9.68;;;6.43;;
68310;SDS011;55157;51.036;17.058;2023-09-08T10:53:03;9.45;;;6.40;;
68310;SDS011;55157;51.036;17.058;2023-09-08T10:55:34;11.82;;;6.35;;
68310;SDS011;55157;51.036;17.058;2023-09-08T10:58:00;7.20;;;5.72;;
68310;SDS011;55157;51.036;17.058;2023-09-08T11:00:25;6.37;;;4.80;;
68310;SDS011;55157;51.036;17.058;2023-09-08T11:02:52;10.23;;;5.57;;
68310;SDS011;55157;51.036;17.058;2023-09-08T11:05:17;9.55;;;5.88;;
68310;SDS011;55157;51.036;17.058;2023-09-08T11:07:43;15.57;;;6.60;;
68310;SDS011;55157;51.036;17.058;2023-09-08T11:10:08;11.07;;;6.10;;
68310;SDS011;55157;51.036;17.058;2023-09-08T11:12:34;9.18;;;5.63;;
68310;SDS011;55157;51.036;17.058;2023-09-08T11:14:59;9.68;;;6.43;;
68310;SDS011;55157;51.036;17.058;2023-09-08T11:17:25;8.18;;;5.72;;
68310;SDS011;55157;51.036;17.058;2023-09-08T11:19:52;7.65;;;5.55;;
68310;SDS011;55157;51.036;17.058;2023-09-08T11:22:17;9.82;;;6.75;;
68310;SDS011;55157;51.036;17.058;2023-09-08T11:24:42;10.07;;;5.63;;
68310;SDS011;55157;51.036;17.058;2023-09-08T11:27:08;8.88;;;5.22;;
68310;SDS011;55157;51.036;17.058;2023-09-08T11:29:33;10.25;;;5.75;;
68310;SDS011;55157;51.036;17.058;2023-09-08T11:31:59;8.43;;;5.78;;
68310;SDS011;55157;51.036;17.058;2023-09-08T11:34:24;9.77;;;5.85;;
68310;SDS011;55157;51.036;17.058;2023-09-08T11:36:51;9.70;;;5.33;;
68310;SDS011;55157;51.036;17.058;2023-09-08T11:39:16;10.48;;;5.63;;
68310;SDS011;55157;51.036;17.058;2023-09-08T11:41:41;11.70;;;5.47;;
68310;SDS011;55157;51.036;17.058;2023-09-08T11:44:06;9.15;;;5.85;;
68310;SDS011;55157;51.036;17.058;2023-09-08T11:46:32;8.88;;;6.18;;
68310;SDS011;55157;51.036;17.058;2023-09-08T11:48:57;10.43;;;5.35;;
68310;SDS011;55157;51.036;17.058;2023-09-08T11:51:22;10.48;;;5.40;;
68310;SDS011;55157;51.036;17.058;2023-09-08T11:53:49;9.30;;;5.20;;
68310;SDS011;55157;51.036;17.058;2023-09-08T11:56:14;10.60;;;5.43;;
68310;SDS011;55157;51.036;17.058;2023-09-08T11:58:40;11.68;;;5.72;;
68310;SDS011;55157;51.036;17.058;2023-09-08T12:01:06;6.75;;;5.03;;
68310;SDS011;55157;51.036;17.058;2023-09-08T12:03:32;8.82;;;4.63;;
68310;SDS011;55157;51.036;17.058;2023-09-08T12:05:57;8.83;;;5.20;;
68310;SDS011;55157;51.036;17.058;2023-09-08T12:08:24;7.03;;;4.50;;
68310;SDS011;55157;51.036;17.058;2023-09-08T12:10:53;9.30;;;4.60;;
68310;SDS011;55157;51.036;17.058;2023-09-08T12:13:20;9.98;;;4.95;;
68310;SDS011;55157;51.036;17.058;2023-09-08T12:15:45;20.95;;;5.25;;
68310;SDS011;55157;51.036;17.058;2023-09-08T12:18:11;32.97;;;5.63;;
68310;SDS011;55157;51.036;17.058;2023-09-08T12:20:36;8.90;;;4.70;;
68310;SDS011;55157;51.036;17.058;2023-09-08T12:23:03;6.90;;;4.95;;
68310;SDS011;55157;51.036;17.058;2023-09-08T12:25:29;6.88;;;4.18;;
68310;SDS011;55157;51.036;17.058;2023-09-08T12:27:56;7.93;;;4.50;;
68310;SDS011;55157;51.036;17.058;2023-09-08T12:30:21;7.45;;;5.15;;
68310;SDS011;55157;51.036;17.058;2023-09-08T12:32:47;5.47;;;4.55;;
68310;SDS011;55157;51.036;17.058;2023-09-08T12:35:13;6.20;;;4.32;;
68310;SDS011;55157;51.036;17.058;2023-09-08T12:37:38;5.77;;;4.53;;
68310;SDS011;55157;51.036;17.058;2023-09-08T12:40:04;10.40;;;4.95;;
68310;SDS011;55157;51.036;17.058;2023-09-08T12:42:29;6.63;;;4.15;;
68310;SDS011;55157;51.036;17.058;2023-09-08T12:44:56;6.13;;;4.20;;
68310;SDS011;55157;51.036;17.058;2023-09-08T12:47:21;8.75;;;4.20;;
68310;SDS011;55157;51.036;17.058;2023-09-08T12:49:46;8.53;;;4.10;;
68310;SDS011;55157;51.036;17.058;2023-09-08T12:52:12;8.27;;;4.17;;
68310;SDS011;55157;51.036;17.058;2023-09-08T12:54:37;6.13;;;4.40;;
68310;SDS011;55157;51.036;17.058;2023-09-08T12:57:02;6.07;;;4.23;;
68310;SDS011;55157;51.036;17.058;2023-09-08T12:59:27;11.30;;;4.22;;
68310;SDS011;55157;51.036;17.058;2023-09-08T13:01:54;4.97;;;3.90;;
68310;SDS011;55157;51.036;17.058;2023-09-08T13:04:19;4.57;;;3.50;;
68310;SDS011;55157;51.036;17.058;2023-09-08T13:06:45;9.43;;;4.10;;
68310;SDS011;55157;51.036;17.058;2023-09-08T13:09:10;8.50;;;4.27;;
68310;SDS011;55157;51.036;17.058;2023-09-08T13:11:35;8.10;;;4.43;;
68310;SDS011;55157;51.036;17.058;2023-09-08T13:14:00;6.17;;;3.90;;
68310;SDS011;55157;51.036;17.058;2023-09-08T13:16:26;5.80;;;3.90;;
68310;SDS011;55157;51.036;17.058;2023-09-08T13:18:52;8.43;;;4.10;;
68310;SDS011;55157;51.036;17.058;2023-09-08T13:21:17;7.28;;;5.03;;
68310;SDS011;55157;51.036;17.058;2023-09-08T13:23:43;7.67;;;4.57;;
68310;SDS011;55157;51.036;17.058;2023-09-08T13:26:08;7.37;;;4.43;;
68310;SDS011;55157;51.036;17.058;2023-09-08T13:28:34;6.38;;;4.60;;
68310;SDS011;55157;51.036;17.058;2023-09-08T13:30:59;7.17;;;4.40;;
68310;SDS011;55157;51.036;17.058;2023-09-08T13:33:25;20.17;;;4.50;;
68310;SDS011;55157;51.036;17.058;2023-09-08T13:35:51;34.97;;;5.17;;
68310;SDS011;55157;51.036;17.058;2023-09-08T13:38:17;6.60;;;3.88;;
68310;SDS011;55157;51.036;17.058;2023-09-08T13:40:42;5.00;;;3.80;;
68310;SDS011;55157;51.036;17.058;2023-09-08T13:43:07;8.07;;;3.80;;
68310;SDS011;55157;51.036;17.058;2023-09-08T13:45:33;5.77;;;3.80;;
68310;SDS011;55157;51.036;17.058;2023-09-08T13:47:58;9.60;;;4.70;;
68310;SDS011;55157;51.036;17.058;2023-09-08T13:50:23;6.80;;;4.53;;
68310;SDS011;55157;51.036;17.058;2023-09-08T13:52:50;10.15;;;3.83;;
68310;SDS011;55157;51.036;17.058;2023-09-08T13:55:15;7.28;;;3.90;;
68310;SDS011;55157;51.036;17.058;2023-09-08T13:57:40;5.78;;;3.83;;
68310;SDS011;55157;51.036;17.058;2023-09-08T14:00:06;6.13;;;4.23;;
68310;SDS011;55157;51.036;17.058;2023-09-08T14:02:31;7.78;;;3.80;;
68310;SDS011;55157;51.036;17.058;2023-09-08T14:04:57;4.87;;;3.97;;
68310;SDS011;55157;51.036;17.058;2023-09-08T14:07:22;17.27;;;4.17;;
68310;SDS011;55157;51.036;17.058;2023-09-08T14:09:48;5.23;;;3.70;;
68310;SDS011;55157;51.036;17.058;2023-09-08T14:12:15;12.27;;;3.88;;